createdAt,value
2023-03-05T00:00:21.830Z,0.04
2023-03-05T00:01:21.837Z,-0.00
2023-03-05T00:02:21.833Z,-0.03
2023-03-05T00:03:21.829Z,-0.06
2023-03-05T00:04:21.855Z,-0.07
2023-03-05T00:05:21.762Z,-0.08
2023-03-05T00:06:21.779Z,-0.10
2023-03-05T00:07:21.743Z,-0.11
2023-03-05T00:08:21.728Z,-0.11
2023-03-05T00:09:21.707Z,-0.12
2023-03-05T00:10:21.699Z,-0.13
2023-03-05T00:11:21.747Z,-0.13
2023-03-05T00:12:21.691Z,-0.12
2023-03-05T00:13:21.664Z,-0.11
2023-03-05T00:14:21.666Z,-0.10
2023-03-05T00:15:21.696Z,-0.09
2023-03-05T00:16:21.773Z,-0.08
2023-03-05T00:17:21.638Z,-0.07
2023-03-05T00:18:21.594Z,-0.07
2023-03-05T00:19:21.578Z,-0.06
2023-03-05T00:20:21.586Z,-0.05
2023-03-05T00:21:21.557Z,-0.04
2023-03-05T00:22:21.564Z,-0.02
2023-03-05T00:23:21.533Z,0.00
2023-03-05T00:24:21.512Z,0.02
2023-03-05T00:25:21.533Z,0.04
2023-03-05T00:26:21.488Z,0.06
2023-03-05T00:27:21.481Z,0.07
2023-03-05T00:28:21.466Z,0.08
2023-03-05T00:29:21.460Z,0.09
2023-03-05T00:30:21.440Z,0.10
2023-03-05T00:31:21.615Z,0.12
2023-03-05T00:32:22.247Z,0.14
2023-03-05T00:33:21.401Z,0.16
2023-03-05T00:34:21.394Z,0.17
2023-03-05T00:35:21.390Z,0.17
2023-03-05T00:36:21.386Z,0.18
2023-03-05T00:37:21.347Z,0.19
2023-03-05T00:38:21.345Z,0.20
2023-03-05T00:39:21.342Z,0.19
2023-03-05T00:40:21.441Z,0.18
2023-03-05T00:41:21.322Z,0.16
2023-03-05T00:42:21.294Z,0.14
2023-03-05T00:43:21.292Z,0.12
2023-03-05T00:44:21.256Z,0.11
2023-03-05T00:45:21.248Z,0.11
2023-03-05T00:46:21.322Z,0.12
2023-03-05T00:47:21.234Z,0.12
2023-03-05T00:48:21.227Z,0.12
2023-03-05T00:49:21.199Z,0.12
2023-03-05T00:50:21.210Z,0.11
2023-03-05T00:51:21.187Z,0.09
2023-03-05T00:52:21.156Z,0.07
2023-03-05T00:53:21.148Z,0.06
2023-03-05T00:54:21.131Z,0.05
2023-03-05T00:55:21.125Z,0.04
2023-03-05T00:56:21.107Z,0.05
2023-03-05T00:57:21.133Z,0.06
2023-03-05T00:58:21.103Z,0.07
2023-03-05T00:59:21.072Z,0.08
2023-03-05T01:00:21.051Z,0.08
2023-03-05T01:01:21.094Z,0.10
2023-03-05T01:02:21.035Z,0.10
2023-03-05T01:03:21.077Z,0.11
2023-03-05T01:04:20.991Z,0.11
2023-03-05T01:05:21.042Z,0.11
2023-03-05T01:06:20.964Z,0.10
2023-03-05T01:07:20.970Z,0.08
2023-03-05T01:08:20.953Z,0.06
2023-03-05T01:09:20.936Z,0.04
2023-03-05T01:10:20.914Z,0.02
2023-03-05T01:11:20.902Z,0.00
2023-03-05T01:12:20.893Z,-0.01
2023-03-05T01:13:20.888Z,-0.03
2023-03-05T01:14:20.860Z,-0.05
2023-03-05T01:15:20.846Z,-0.06
2023-03-05T01:16:20.875Z,-0.07
2023-03-05T01:17:20.814Z,-0.07
2023-03-05T01:18:20.797Z,-0.06
2023-03-05T01:19:21.028Z,-0.05
2023-03-05T01:20:20.778Z,-0.05
2023-03-05T01:21:20.775Z,-0.05
2023-03-05T01:22:20.745Z,-0.05
2023-03-05T01:23:20.742Z,-0.04
2023-03-05T01:24:20.738Z,-0.03
2023-03-05T01:25:20.720Z,-0.02
2023-03-05T01:26:20.729Z,-0.00
2023-03-05T01:27:20.703Z,0.01
2023-03-05T01:28:20.668Z,0.02
2023-03-05T01:29:20.712Z,0.01
2023-03-05T01:30:20.642Z,-0.01
2023-03-05T01:31:20.675Z,-0.04
2023-03-05T01:32:20.656Z,-0.06
2023-03-05T01:33:20.628Z,-0.08
2023-03-05T01:34:20.604Z,-0.09
2023-03-05T01:35:20.661Z,-0.09
2023-03-05T01:36:20.560Z,-0.09
2023-03-05T01:37:20.569Z,-0.08
2023-03-05T01:38:20.558Z,-0.08
2023-03-05T01:39:20.549Z,-0.08
2023-03-05T01:40:20.532Z,-0.08
2023-03-05T01:41:20.515Z,-0.09
2023-03-05T01:42:20.490Z,-0.09
2023-03-05T01:43:20.482Z,-0.09
2023-03-05T01:44:20.469Z,-0.09
2023-03-05T01:45:20.451Z,-0.09
2023-03-05T01:46:20.442Z,-0.08
2023-03-05T01:47:20.440Z,-0.07
2023-03-05T01:48:20.413Z,-0.07
2023-03-05T01:49:20.428Z,-0.06
2023-03-05T01:50:20.399Z,-0.07
2023-03-05T01:51:20.395Z,-0.09
2023-03-05T01:52:20.367Z,-0.11
2023-03-05T01:53:20.368Z,-0.14
2023-03-05T01:54:20.369Z,-0.15
2023-03-05T01:55:20.330Z,-0.17
2023-03-05T01:56:20.310Z,-0.18
2023-03-05T01:57:20.314Z,-0.18
2023-03-05T01:58:20.283Z,-0.18
2023-03-05T01:59:20.289Z,-0.18
2023-03-05T02:00:20.256Z,-0.18
2023-03-05T02:01:20.326Z,-0.18
2023-03-05T02:02:20.230Z,-0.19
2023-03-05T02:03:20.251Z,-0.20
2023-03-05T02:04:20.243Z,-0.20
2023-03-05T02:05:20.192Z,-0.20
2023-03-05T02:06:20.195Z,-0.19
2023-03-05T02:07:20.198Z,-0.18
2023-03-05T02:08:20.151Z,-0.17
2023-03-05T02:09:20.148Z,-0.16
2023-03-05T02:10:20.146Z,-0.16
2023-03-05T02:11:20.132Z,-0.15
2023-03-05T02:12:20.133Z,-0.14
2023-03-05T02:13:20.108Z,-0.13
2023-03-05T02:14:20.082Z,-0.12
2023-03-05T02:15:20.090Z,-0.12
2023-03-05T02:16:20.088Z,-0.11
2023-03-05T02:17:20.070Z,-0.09
2023-03-05T02:18:20.034Z,-0.07
2023-03-05T02:19:20.043Z,-0.06
2023-03-05T02:20:20.016Z,-0.06
2023-03-05T02:21:20.002Z,-0.06
2023-03-05T02:22:20.003Z,-0.05
2023-03-05T02:23:19.989Z,-0.05
2023-03-05T02:24:19.969Z,-0.06
2023-03-05T02:25:19.986Z,-0.06
2023-03-05T02:26:19.931Z,-0.06
2023-03-05T02:27:19.940Z,-0.05
2023-03-05T02:28:19.912Z,-0.04
2023-03-05T02:29:19.915Z,-0.02
2023-03-05T02:30:19.892Z,-0.01
2023-03-05T02:31:19.966Z,0.00
2023-03-05T02:32:19.975Z,0.02
2023-03-05T02:33:19.842Z,0.03
2023-03-05T02:34:19.842Z,0.05
2023-03-05T02:35:19.905Z,0.07
2023-03-05T02:36:19.803Z,0.08
2023-03-05T02:37:19.797Z,0.08
2023-03-05T02:38:19.781Z,0.07
2023-03-05T02:39:19.781Z,0.06
2023-03-05T02:40:19.757Z,0.04
2023-03-05T02:41:19.758Z,0.03
2023-03-05T02:42:19.733Z,0.02
2023-03-05T02:43:19.718Z,0.02
2023-03-05T02:44:19.710Z,0.02
2023-03-05T02:45:19.705Z,0.02
2023-03-05T02:46:19.691Z,0.01
2023-03-05T02:47:19.679Z,-0.00
2023-03-05T02:48:19.680Z,-0.01
2023-03-05T02:49:19.646Z,-0.03
2023-03-05T02:50:19.622Z,-0.04
2023-03-05T02:51:19.646Z,-0.04
2023-03-05T02:52:19.594Z,-0.03
2023-03-05T02:53:19.585Z,-0.02
2023-03-05T02:54:19.568Z,-0.02
2023-03-05T02:55:19.564Z,-0.02
2023-03-05T02:56:19.570Z,-0.02
2023-03-05T02:57:19.534Z,-0.03
2023-03-05T02:58:19.528Z,-0.05
2023-03-05T02:59:19.514Z,-0.07
2023-03-05T03:00:19.502Z,-0.09
2023-03-05T03:01:19.544Z,-0.12
2023-03-05T03:02:19.472Z,-0.15
2023-03-05T03:03:19.550Z,-0.17
2023-03-05T03:04:19.456Z,-0.19
2023-03-05T03:05:19.457Z,-0.21
2023-03-05T03:06:19.459Z,-0.22
2023-03-05T03:07:19.405Z,-0.22
2023-03-05T03:08:19.406Z,-0.22
2023-03-05T03:09:19.378Z,-0.22
2023-03-05T03:10:19.377Z,-0.22
2023-03-05T03:11:19.379Z,-0.23
2023-03-05T03:12:19.350Z,-0.24
2023-03-05T03:13:19.339Z,-0.26
2023-03-05T03:14:19.338Z,-0.28
2023-03-05T03:15:20.108Z,-0.29
2023-03-05T03:16:19.323Z,-0.29
2023-03-05T03:17:19.313Z,-0.30
2023-03-05T03:18:19.275Z,-0.30
2023-03-05T03:19:20.097Z,-0.30
2023-03-05T03:20:19.252Z,-0.30
2023-03-05T03:21:19.256Z,-0.30
2023-03-05T03:22:19.225Z,-0.29
2023-03-05T03:23:19.200Z,-0.27
2023-03-05T03:24:19.195Z,-0.26
2023-03-05T03:25:19.207Z,-0.25
2023-03-05T03:26:19.167Z,-0.24
2023-03-05T03:27:19.167Z,-0.24
2023-03-05T03:28:19.163Z,-0.24
2023-03-05T03:29:19.160Z,-0.25
2023-03-05T03:30:19.142Z,-0.25
2023-03-05T03:31:19.121Z,-0.24
2023-03-05T03:32:19.149Z,-0.24
2023-03-05T03:33:19.085Z,-0.23
2023-03-05T03:34:19.076Z,-0.22
2023-03-05T03:35:19.077Z,-0.21
2023-03-05T03:36:19.037Z,-0.21
2023-03-05T03:37:19.039Z,-0.21
2023-03-05T03:38:19.024Z,-0.22
2023-03-05T03:39:19.020Z,-0.23
2023-03-05T03:40:18.995Z,-0.24
2023-03-05T03:41:19.004Z,-0.25
2023-03-05T03:42:18.977Z,-0.25
2023-03-05T03:43:18.953Z,-0.24
2023-03-05T03:44:18.935Z,-0.22
2023-03-05T03:45:18.927Z,-0.20
2023-03-05T03:46:18.996Z,-0.18
2023-03-05T03:47:18.910Z,-0.16
2023-03-05T03:48:18.894Z,-0.15
2023-03-05T03:49:18.878Z,-0.14
2023-03-05T03:50:18.868Z,-0.12
2023-03-05T03:51:18.861Z,-0.11
2023-03-05T03:52:18.855Z,-0.09
2023-03-05T03:53:18.826Z,-0.08
2023-03-05T03:54:18.853Z,-0.06
2023-03-05T03:55:18.801Z,-0.04
2023-03-05T03:56:18.801Z,-0.02
2023-03-05T03:57:18.813Z,-0.01
2023-03-05T03:58:18.783Z,-0.02
2023-03-05T03:59:18.762Z,-0.03
2023-03-05T04:00:18.744Z,-0.05
2023-03-05T04:01:18.734Z,-0.06
2023-03-05T04:02:18.836Z,-0.07
2023-03-05T04:03:18.713Z,-0.09
2023-03-05T04:04:18.746Z,-0.10
2023-03-05T04:05:18.698Z,-0.10
2023-03-05T04:06:18.661Z,-0.09
2023-03-05T04:07:18.654Z,-0.08
2023-03-05T04:08:18.661Z,-0.07
2023-03-05T04:09:18.656Z,-0.06
2023-03-05T04:10:18.620Z,-0.06
2023-03-05T04:11:18.616Z,-0.06
2023-03-05T04:12:18.593Z,-0.06
2023-03-05T04:13:18.591Z,-0.05
2023-03-05T04:14:18.564Z,-0.04
2023-03-05T04:15:18.570Z,-0.02
2023-03-05T04:16:18.589Z,-0.01
2023-03-05T04:17:18.529Z,-0.01
2023-03-05T04:18:18.546Z,-0.00
2023-03-05T04:19:18.499Z,0.01
2023-03-05T04:20:18.490Z,0.02
2023-03-05T04:21:18.495Z,0.04
2023-03-05T04:22:18.486Z,0.06
2023-03-05T04:23:18.501Z,0.07
2023-03-05T04:24:18.452Z,0.09
2023-03-05T04:25:18.452Z,0.09
2023-03-05T04:26:18.404Z,0.10
2023-03-05T04:27:18.406Z,0.12
2023-03-05T04:28:18.391Z,0.13
2023-03-05T04:29:18.398Z,0.14
2023-03-05T04:30:18.371Z,0.16
2023-03-05T04:31:18.438Z,0.17
2023-03-05T04:32:18.352Z,0.18
2023-03-05T04:33:18.320Z,0.17
2023-03-05T04:34:18.316Z,0.16
2023-03-05T04:35:18.338Z,0.15
2023-03-05T04:36:18.272Z,0.15
2023-03-05T04:37:18.267Z,0.15
2023-03-05T04:38:18.248Z,0.16
2023-03-05T04:39:18.253Z,0.16
2023-03-05T04:40:18.268Z,0.17
2023-03-05T04:41:18.243Z,0.18
2023-03-05T04:42:18.200Z,0.19
2023-03-05T04:43:18.206Z,0.20
2023-03-05T04:44:18.190Z,0.20
2023-03-05T04:45:18.180Z,0.20
2023-03-05T04:46:18.169Z,0.19
2023-03-05T04:47:18.154Z,0.19
2023-03-05T04:48:18.119Z,0.17
2023-03-05T04:49:18.138Z,0.16
2023-03-05T04:50:18.097Z,0.15
2023-03-05T04:51:18.080Z,0.14
2023-03-05T04:52:18.068Z,0.14
2023-03-05T04:53:18.056Z,0.15
2023-03-05T04:54:18.051Z,0.16
2023-03-05T04:55:18.036Z,0.17
2023-03-05T04:56:18.022Z,0.19
2023-03-05T04:57:18.009Z,0.21
2023-03-05T04:58:18.008Z,0.22
2023-03-05T04:59:18.004Z,0.24
2023-03-05T05:00:17.965Z,0.25
2023-03-05T05:01:18.031Z,0.26
2023-03-05T05:02:17.947Z,0.28
2023-03-05T05:03:17.990Z,0.31
2023-03-05T05:04:17.916Z,0.33
2023-03-05T05:05:17.909Z,0.35
2023-03-05T05:06:17.899Z,0.36
2023-03-05T05:07:17.873Z,0.36
2023-03-05T05:08:17.877Z,0.36
2023-03-05T05:09:17.866Z,0.35
2023-03-05T05:10:17.868Z,0.34
2023-03-05T05:11:17.837Z,0.33
2023-03-05T05:12:17.820Z,0.32
2023-03-05T05:13:17.834Z,0.31
2023-03-05T05:14:17.797Z,0.31
2023-03-05T05:15:17.789Z,0.31
2023-03-05T05:16:17.850Z,0.31
2023-03-05T05:17:17.761Z,0.30
2023-03-05T05:18:17.738Z,0.30
2023-03-05T05:19:17.783Z,0.30
2023-03-05T05:20:17.728Z,0.31
2023-03-05T05:21:17.711Z,0.31
2023-03-05T05:22:17.709Z,0.31
2023-03-05T05:23:17.686Z,0.31
2023-03-05T05:24:17.682Z,0.31
2023-03-05T05:25:17.671Z,0.31
2023-03-05T05:26:17.664Z,0.31
2023-03-05T05:27:17.628Z,0.31
2023-03-05T05:28:17.612Z,0.32
2023-03-05T05:29:17.612Z,0.32
2023-03-05T05:30:17.604Z,0.33
2023-03-05T05:31:17.626Z,0.35
2023-03-05T05:32:17.595Z,0.37
2023-03-05T05:33:17.571Z,0.40
2023-03-05T05:34:17.533Z,0.42
2023-03-05T05:35:17.691Z,0.43
2023-03-05T05:36:17.524Z,0.44
2023-03-05T05:37:17.507Z,0.45
2023-03-05T05:38:17.493Z,0.45
2023-03-05T05:39:19.559Z,0.46
2023-03-05T05:40:17.486Z,0.48
2023-03-05T05:41:17.450Z,0.50
2023-03-05T05:42:17.444Z,0.51
2023-03-05T05:43:17.426Z,0.53
2023-03-05T05:44:17.426Z,0.54
2023-03-05T05:45:17.441Z,0.55
2023-03-05T05:46:17.543Z,0.56
2023-03-05T05:47:17.388Z,0.56
2023-03-05T05:48:17.404Z,0.56
2023-03-05T05:49:17.359Z,0.57
2023-03-05T05:50:17.347Z,0.58
2023-03-05T05:51:17.335Z,0.58
2023-03-05T05:52:17.316Z,0.58
2023-03-05T05:53:17.312Z,0.59
2023-03-05T05:54:17.294Z,0.60
2023-03-05T05:55:17.286Z,0.61
2023-03-05T05:56:17.303Z,0.63
2023-03-05T05:57:17.266Z,0.64
2023-03-05T05:58:17.232Z,0.66
2023-03-05T05:59:17.229Z,0.66
2023-03-05T06:00:17.236Z,0.67
2023-03-05T06:01:17.198Z,0.67
2023-03-05T06:02:17.222Z,0.67
2023-03-05T06:03:17.242Z,0.67
2023-03-05T06:04:17.157Z,0.66
2023-03-05T06:05:17.143Z,0.65
2023-03-05T06:06:17.149Z,0.64
2023-03-05T06:07:17.148Z,0.63
2023-03-05T06:08:17.136Z,0.62
2023-03-05T06:09:17.096Z,0.62
2023-03-05T06:10:17.079Z,0.61
2023-03-05T06:11:19.259Z,0.60
2023-03-05T06:12:17.134Z,0.59
2023-03-05T06:13:17.061Z,0.58
2023-03-05T06:14:17.053Z,0.57
2023-03-05T06:15:17.023Z,0.56
2023-03-05T06:16:17.072Z,0.56
2023-03-05T06:17:28.637Z,0.57
2023-03-05T06:18:16.989Z,0.57
2023-03-05T06:19:16.969Z,0.57
2023-03-05T06:20:16.972Z,0.58
2023-03-05T06:21:16.960Z,0.59
2023-03-05T06:22:16.937Z,0.61
2023-03-05T06:23:16.926Z,0.63
2023-03-05T06:24:16.922Z,0.66
2023-03-05T06:25:16.928Z,0.69
2023-03-05T06:26:16.881Z,0.71
2023-03-05T06:27:16.869Z,0.73
2023-03-05T06:28:16.876Z,0.74
2023-03-05T06:29:16.837Z,0.75
2023-03-05T06:30:16.839Z,0.75
2023-03-05T06:31:16.818Z,0.75
2023-03-05T06:32:16.845Z,0.76
2023-03-05T06:33:16.777Z,0.78
2023-03-05T06:34:16.822Z,0.79
2023-03-05T06:35:16.979Z,0.80
2023-03-05T06:36:16.774Z,0.82
2023-03-05T06:37:16.798Z,0.82
2023-03-05T06:38:16.727Z,0.84
2023-03-05T06:39:16.707Z,0.84
2023-03-05T06:40:16.700Z,0.85
2023-03-05T06:41:16.688Z,0.85
2023-03-05T06:42:16.680Z,0.85
2023-03-05T06:43:16.654Z,0.85
2023-03-05T06:44:16.663Z,0.86
2023-03-05T06:45:16.627Z,0.87
2023-03-05T06:46:16.741Z,0.88
2023-03-05T06:47:16.656Z,0.89
2023-03-05T06:48:16.585Z,0.89
2023-03-05T06:49:16.575Z,0.89
2023-03-05T06:50:16.566Z,0.89
2023-03-05T06:51:16.569Z,0.89
2023-03-05T06:52:16.559Z,0.88
2023-03-05T06:53:16.532Z,0.88
2023-03-05T06:54:16.533Z,0.87
2023-03-05T06:55:16.496Z,0.88
2023-03-05T06:56:16.504Z,0.88
2023-03-05T06:57:16.474Z,0.89
2023-03-05T06:58:16.476Z,0.90
2023-03-05T06:59:16.470Z,0.91
2023-03-05T07:00:16.471Z,0.93
2023-03-05T07:01:16.490Z,0.94
2023-03-05T07:02:16.441Z,0.95
2023-03-05T07:03:16.409Z,0.96
2023-03-05T07:04:16.424Z,0.96
2023-03-05T07:05:16.371Z,0.96
2023-03-05T07:06:16.379Z,0.95
2023-03-05T07:07:16.342Z,0.94
2023-03-05T07:08:16.372Z,0.93
2023-03-05T07:09:16.325Z,0.93
2023-03-05T07:10:16.309Z,0.92
2023-03-05T07:11:16.323Z,0.92
2023-03-05T07:12:16.299Z,0.92
2023-03-05T07:13:16.293Z,0.93
2023-03-05T07:14:16.274Z,0.94
2023-03-05T07:15:16.250Z,0.95
2023-03-05T07:16:16.272Z,0.97
2023-03-05T07:17:16.212Z,0.98
2023-03-05T07:18:16.208Z,1.01
2023-03-05T07:19:16.200Z,1.03
2023-03-05T07:20:16.196Z,1.05
2023-03-05T07:21:16.174Z,1.07
2023-03-05T07:22:16.152Z,1.08
2023-03-05T07:23:16.140Z,1.10
2023-03-05T07:24:16.147Z,1.12
2023-03-05T07:25:16.121Z,1.14
2023-03-05T07:26:16.129Z,1.17
2023-03-05T07:27:16.096Z,1.19
2023-03-05T07:28:16.101Z,1.21
2023-03-05T07:29:16.153Z,1.22
2023-03-05T07:30:16.095Z,1.23
2023-03-05T07:31:16.135Z,1.25
2023-03-05T07:32:16.066Z,1.26
2023-03-05T07:33:16.016Z,1.27
2023-03-05T07:34:16.012Z,1.28
2023-03-05T07:35:16.022Z,1.28
2023-03-05T07:36:15.986Z,1.29
2023-03-05T07:37:15.977Z,1.30
2023-03-05T07:38:15.963Z,1.31
2023-03-05T07:39:15.971Z,1.32
2023-03-05T07:40:15.932Z,1.33
2023-03-05T07:41:15.918Z,1.33
2023-03-05T07:42:15.958Z,1.33
2023-03-05T07:43:15.905Z,1.32
2023-03-05T07:44:15.931Z,1.30
2023-03-05T07:45:15.862Z,1.29
2023-03-05T07:46:15.871Z,1.27
2023-03-05T07:47:15.853Z,1.26
2023-03-05T07:48:15.833Z,1.26
2023-03-05T07:49:15.831Z,1.27
2023-03-05T07:50:15.830Z,1.27
2023-03-05T07:51:15.819Z,1.28
2023-03-05T07:52:15.797Z,1.29
2023-03-05T07:53:15.776Z,1.30
2023-03-05T07:54:15.760Z,1.30
2023-03-05T07:55:15.744Z,1.31
2023-03-05T07:56:15.725Z,1.31
2023-03-05T07:57:15.730Z,1.31
2023-03-05T07:58:15.708Z,1.32
2023-03-05T07:59:15.695Z,1.33
2023-03-05T08:00:15.679Z,1.34
2023-03-05T08:01:15.679Z,1.35
2023-03-05T08:02:15.681Z,1.36
2023-03-05T08:03:15.633Z,1.36
2023-03-05T08:04:15.693Z,1.36
2023-03-05T08:05:15.627Z,1.36
2023-03-05T08:06:15.607Z,1.36
2023-03-05T08:07:15.613Z,1.36
2023-03-05T08:08:15.578Z,1.35
2023-03-05T08:09:15.589Z,1.35
2023-03-05T08:10:15.553Z,1.35
2023-03-05T08:11:15.532Z,1.35
2023-03-05T08:12:15.525Z,1.36
2023-03-05T08:13:15.597Z,1.37
2023-03-05T08:14:15.501Z,1.38
2023-03-05T08:15:15.504Z,1.39
2023-03-05T08:16:15.525Z,1.40
2023-03-05T08:17:15.453Z,1.41
2023-03-05T08:18:15.448Z,1.42
2023-03-05T08:19:15.453Z,1.42
2023-03-05T08:20:15.452Z,1.42
2023-03-05T08:21:15.457Z,1.41
2023-03-05T08:22:15.393Z,1.41
2023-03-05T08:23:15.481Z,1.41
2023-03-05T08:24:15.397Z,1.42
2023-03-05T08:25:15.371Z,1.42
2023-03-05T08:26:15.348Z,1.43
2023-03-05T08:27:15.328Z,1.44
2023-03-05T08:28:15.327Z,1.44
2023-03-05T08:29:15.308Z,1.45
2023-03-05T08:30:15.353Z,1.46
2023-03-05T08:31:15.302Z,1.47
2023-03-05T08:32:15.298Z,1.48
2023-03-05T08:33:15.338Z,1.49
2023-03-05T08:34:15.272Z,1.49
2023-03-05T08:35:15.231Z,1.50
2023-03-05T08:36:15.335Z,1.51
2023-03-05T08:37:15.277Z,1.53
2023-03-05T08:38:15.236Z,1.55
2023-03-05T08:39:15.183Z,1.56
2023-03-05T08:40:15.241Z,1.57
2023-03-05T08:41:15.268Z,1.58
2023-03-05T08:42:15.142Z,1.58
2023-03-05T08:43:16.389Z,1.59
2023-03-05T08:44:15.207Z,1.60
2023-03-05T08:45:16.129Z,1.61
2023-03-05T08:46:15.547Z,1.62
2023-03-05T08:47:15.192Z,1.63
2023-03-05T08:48:15.114Z,1.65
2023-03-05T08:49:16.402Z,1.67
2023-03-05T08:50:15.066Z,1.69
2023-03-05T08:51:15.418Z,1.70
2023-03-05T08:52:15.009Z,1.71
2023-03-05T08:53:15.102Z,1.72
2023-03-05T08:54:15.046Z,1.74
2023-03-05T08:55:15.000Z,1.75
2023-03-05T08:56:14.999Z,1.76
2023-03-05T08:57:14.969Z,1.76
2023-03-05T08:58:14.945Z,1.77
2023-03-05T08:59:14.920Z,1.77
2023-03-05T09:00:14.925Z,1.77
2023-03-05T09:01:14.986Z,1.77
2023-03-05T09:02:14.903Z,1.78
2023-03-05T09:03:15.040Z,1.78
2023-03-05T09:04:14.862Z,1.78
2023-03-05T09:05:14.866Z,1.78
2023-03-05T09:06:14.838Z,1.77
2023-03-05T09:07:14.845Z,1.76
2023-03-05T09:08:14.822Z,1.75
2023-03-05T09:09:14.849Z,1.74
2023-03-05T09:10:14.791Z,1.75
2023-03-05T09:11:14.814Z,1.75
2023-03-05T09:12:14.771Z,1.76
2023-03-05T09:13:14.817Z,1.77
2023-03-05T09:14:14.883Z,1.79
2023-03-05T09:15:14.742Z,1.81
2023-03-05T09:16:14.753Z,1.82
2023-03-05T09:17:14.714Z,1.84
2023-03-05T09:18:14.683Z,1.85
2023-03-05T09:19:14.725Z,1.85
2023-03-05T09:20:14.673Z,1.85
2023-03-05T09:21:14.672Z,1.83
2023-03-05T09:22:14.648Z,1.81
2023-03-05T09:23:14.662Z,1.80
2023-03-05T09:24:14.662Z,1.79
2023-03-05T09:25:14.592Z,1.78
2023-03-05T09:26:14.575Z,1.78
2023-03-05T09:27:14.574Z,1.79
2023-03-05T09:28:14.562Z,1.81
2023-03-05T09:29:14.552Z,1.83
2023-03-05T09:30:14.543Z,1.85
2023-03-05T09:31:14.572Z,1.87
2023-03-05T09:32:14.569Z,1.89
2023-03-05T09:33:14.603Z,1.91
2023-03-05T09:34:14.528Z,1.93
2023-03-05T09:35:14.482Z,1.94
2023-03-05T09:36:14.474Z,1.95
2023-03-05T09:37:14.474Z,1.97
2023-03-05T09:38:14.458Z,1.99
2023-03-05T09:39:14.426Z,2.00
2023-03-05T09:40:14.440Z,2.02
2023-03-05T09:41:14.397Z,2.04
2023-03-05T09:42:14.376Z,2.05
2023-03-05T09:43:14.397Z,2.06
2023-03-05T09:44:14.354Z,2.07
2023-03-05T09:45:14.353Z,2.08
2023-03-05T09:46:14.421Z,2.09
2023-03-05T09:47:14.760Z,2.10
2023-03-05T09:48:14.324Z,2.11
2023-03-05T09:49:14.290Z,2.12
2023-03-05T09:50:14.284Z,2.13
2023-03-05T09:51:14.275Z,2.14
2023-03-05T09:52:14.297Z,2.15
2023-03-05T09:53:14.262Z,2.16
2023-03-05T09:54:14.269Z,2.17
2023-03-05T09:55:14.217Z,2.18
2023-03-05T09:56:14.224Z,2.19
2023-03-05T09:57:14.187Z,2.20
2023-03-05T09:58:14.200Z,2.21
2023-03-05T09:59:14.173Z,2.23
2023-03-05T10:00:14.172Z,2.23
2023-03-05T10:01:14.152Z,2.24
2023-03-05T10:02:14.123Z,2.24
2023-03-05T10:03:14.305Z,2.24
2023-03-05T10:04:14.180Z,2.25
2023-03-05T10:05:14.086Z,2.25
2023-03-05T10:06:14.087Z,2.26
2023-03-05T10:07:14.837Z,2.27
2023-03-05T10:08:14.066Z,2.28
2023-03-05T10:09:14.033Z,2.29
2023-03-05T10:10:14.073Z,2.31
2023-03-05T10:11:14.022Z,2.32
2023-03-05T10:12:14.085Z,2.33
2023-03-05T10:13:14.110Z,2.33
2023-03-05T10:14:14.032Z,2.31
2023-03-05T10:15:14.036Z,2.30
2023-03-05T10:16:13.994Z,2.29
2023-03-05T10:17:13.934Z,2.27
2023-03-05T10:18:13.923Z,2.26
2023-03-05T10:19:13.930Z,2.24
2023-03-05T10:20:13.893Z,2.23
2023-03-05T10:21:13.899Z,2.22
2023-03-05T10:22:13.869Z,2.22
2023-03-05T10:23:13.867Z,2.22
2023-03-05T10:24:13.851Z,2.23
2023-03-05T10:25:13.839Z,2.23
2023-03-05T10:26:13.822Z,2.24
2023-03-05T10:27:13.868Z,2.25
2023-03-05T10:28:13.797Z,2.26
2023-03-05T10:29:13.785Z,2.27
2023-03-05T10:30:13.775Z,2.28
2023-03-05T10:31:13.768Z,2.28
2023-03-05T10:32:13.845Z,2.29
2023-03-05T10:33:13.770Z,2.29
2023-03-05T10:34:13.728Z,2.30
2023-03-05T10:35:13.730Z,2.31
2023-03-05T10:36:13.693Z,2.32
2023-03-05T10:37:13.733Z,2.33
2023-03-05T10:38:13.688Z,2.34
2023-03-05T10:39:13.677Z,2.35
2023-03-05T10:40:13.977Z,2.35
2023-03-05T10:41:13.654Z,2.36
2023-03-05T10:42:13.636Z,2.37
2023-03-05T10:43:13.621Z,2.38
2023-03-05T10:44:13.605Z,2.39
2023-03-05T10:45:14.242Z,2.39
2023-03-05T10:46:13.617Z,2.39
2023-03-05T10:47:13.559Z,2.39
2023-03-05T10:48:13.542Z,2.40
2023-03-05T10:49:13.576Z,2.40
2023-03-05T10:50:13.518Z,2.41
2023-03-05T10:51:13.526Z,2.41
2023-03-05T10:52:13.487Z,2.41
2023-03-05T10:53:13.480Z,2.41
2023-03-05T10:54:13.478Z,2.39
2023-03-05T10:55:13.472Z,2.37
2023-03-05T10:56:13.454Z,2.36
2023-03-05T10:57:13.426Z,2.35
2023-03-05T10:58:13.419Z,2.35
2023-03-05T10:59:13.402Z,2.36
2023-03-05T11:00:13.463Z,2.36
2023-03-05T11:01:13.427Z,2.37
2023-03-05T11:02:13.388Z,2.38
2023-03-05T11:03:13.358Z,2.40
2023-03-05T11:04:13.333Z,2.41
2023-03-05T11:05:13.337Z,2.43
2023-03-05T11:06:13.317Z,2.45
2023-03-05T11:07:13.328Z,2.46
2023-03-05T11:08:13.310Z,2.48
2023-03-05T11:09:13.277Z,2.49
2023-03-05T11:10:13.261Z,2.50
2023-03-05T11:11:13.271Z,2.50
2023-03-05T11:12:13.226Z,2.50
2023-03-05T11:13:13.254Z,2.50
2023-03-05T11:14:13.247Z,2.50
2023-03-05T11:15:13.226Z,2.50
2023-03-05T11:16:13.198Z,2.51
2023-03-05T11:17:13.170Z,2.51
2023-03-05T11:18:13.156Z,2.51
2023-03-05T11:19:13.148Z,2.52
2023-03-05T11:20:13.137Z,2.52
2023-03-05T11:21:13.155Z,2.53
2023-03-05T11:22:13.104Z,2.53
2023-03-05T11:23:13.122Z,2.54
2023-03-05T11:24:13.078Z,2.55
2023-03-05T11:25:13.098Z,2.57
2023-03-05T11:26:13.092Z,2.58
2023-03-05T11:27:13.036Z,2.59
2023-03-05T11:28:15.270Z,2.61
2023-03-05T11:29:13.017Z,2.62
2023-03-05T11:30:12.998Z,2.63
2023-03-05T11:31:13.057Z,2.64
2023-03-05T11:32:12.992Z,2.65
2023-03-05T11:33:12.961Z,2.67
2023-03-05T11:34:12.952Z,2.68
2023-03-05T11:35:12.936Z,2.69
2023-03-05T11:36:12.933Z,2.70
2023-03-05T11:37:12.916Z,2.71
2023-03-05T11:38:12.903Z,2.72
2023-03-05T11:39:12.914Z,2.72
2023-03-05T11:40:12.874Z,2.71
2023-03-05T11:41:12.895Z,2.71
2023-03-05T11:42:12.849Z,2.69
2023-03-05T11:43:12.870Z,2.69
2023-03-05T11:44:13.638Z,2.69
2023-03-05T11:45:12.829Z,2.69
2023-03-05T11:46:12.878Z,2.69
2023-03-05T11:47:12.807Z,2.70
2023-03-05T11:48:12.788Z,2.71
2023-03-05T11:49:12.760Z,2.72
2023-03-05T11:50:12.764Z,2.73
2023-03-05T11:51:12.746Z,2.74
2023-03-05T11:52:12.714Z,2.74
2023-03-05T11:53:12.757Z,2.74
2023-03-05T11:54:12.709Z,2.74
2023-03-05T11:55:12.713Z,2.74
2023-03-05T11:56:12.683Z,2.73
2023-03-05T11:57:12.666Z,2.73
2023-03-05T11:58:12.645Z,2.73
2023-03-05T11:59:12.641Z,2.73
2023-03-05T12:00:12.618Z,2.74
2023-03-05T12:01:12.639Z,2.75
2023-03-05T12:02:12.626Z,2.77
2023-03-05T12:03:12.612Z,2.79
2023-03-05T12:04:12.652Z,2.80
2023-03-05T12:05:12.562Z,2.82
2023-03-05T12:06:12.571Z,2.84
2023-03-05T12:07:12.557Z,2.87
2023-03-05T12:08:12.522Z,2.88
2023-03-05T12:09:12.510Z,2.90
2023-03-05T12:10:12.494Z,2.92
2023-03-05T12:11:12.494Z,2.94
2023-03-05T12:12:12.500Z,2.95
2023-03-05T12:13:12.463Z,2.97
2023-03-05T12:14:12.448Z,2.98
2023-03-05T12:15:12.463Z,2.99
2023-03-05T12:16:12.494Z,3.01
2023-03-05T12:17:12.418Z,3.02
2023-03-05T12:18:12.391Z,3.02
2023-03-05T12:19:12.408Z,3.03
2023-03-05T12:20:12.387Z,3.03
2023-03-05T12:21:12.364Z,3.04
2023-03-05T12:22:12.392Z,3.05
2023-03-05T12:23:12.347Z,3.06
2023-03-05T12:24:12.342Z,3.07
2023-03-05T12:25:12.322Z,3.07
2023-03-05T12:26:12.306Z,3.08
2023-03-05T12:27:12.306Z,3.08
2023-03-05T12:28:12.277Z,3.08
2023-03-05T12:29:12.300Z,3.07
2023-03-05T12:30:12.243Z,3.06
2023-03-05T12:31:12.251Z,3.06
2023-03-05T12:32:12.263Z,3.06
2023-03-05T12:33:12.239Z,3.07
2023-03-05T12:34:12.305Z,3.07
2023-03-05T12:35:12.181Z,3.08
2023-03-05T12:36:12.171Z,3.09
2023-03-05T12:37:12.195Z,3.10
2023-03-05T12:38:26.055Z,3.10
2023-03-05T12:39:12.143Z,3.09
2023-03-05T12:40:12.121Z,3.07
2023-03-05T12:41:12.134Z,3.06
2023-03-05T12:42:12.106Z,3.05
2023-03-05T12:43:12.092Z,3.04
2023-03-05T12:44:12.073Z,3.04
2023-03-05T12:45:12.062Z,3.05
2023-03-05T12:46:12.081Z,3.05
2023-03-05T12:47:12.053Z,3.05
2023-03-05T12:48:12.178Z,3.05
2023-03-05T12:49:12.008Z,3.04
2023-03-05T12:50:12.011Z,3.05
2023-03-05T12:51:11.981Z,3.06
2023-03-05T12:52:11.978Z,3.07
2023-03-05T12:53:11.977Z,3.09
2023-03-05T12:54:11.940Z,3.11
2023-03-05T12:55:11.943Z,3.13
2023-03-05T12:56:12.864Z,3.16
2023-03-05T12:57:11.910Z,3.18
2023-03-05T12:58:11.901Z,3.20
2023-03-05T12:59:11.892Z,3.22
2023-03-05T13:00:11.871Z,3.24
2023-03-05T13:01:11.950Z,3.25
2023-03-05T13:02:11.857Z,3.27
2023-03-05T13:03:11.852Z,3.28
2023-03-05T13:04:11.828Z,3.29
2023-03-05T13:05:11.811Z,3.30
2023-03-05T13:06:11.826Z,3.31
2023-03-05T13:07:11.776Z,3.31
2023-03-05T13:08:14.106Z,3.32
2023-03-05T13:09:11.776Z,3.32
2023-03-05T13:10:11.756Z,3.33
2023-03-05T13:11:11.735Z,3.33
2023-03-05T13:12:11.815Z,3.33